GBBKB EGCF-EGCF

Flight info

Callsign GBBKB
Flight time 0h 4m
Altitude 1000
Route VFR CIRCUITS
Aircraft C152/L-SFG/C

Departure

Time 2026-04-19 11:41
Airport Sandtoft Airfield (EGCF)

Arrival

Time 2026-04-19 11:45
Airport Sandtoft Airfield (EGCF)
Time Latitude Longitude Altitude Speed Heading
2026-04-19 11:30 53.56140 -0.85444 15 ft 0 kts 131°
2026-04-19 11:37 53.56139 -0.85444 15 ft 1 kts 130°
2026-04-19 11:37 53.56153 -0.85410 15 ft 8 kts
2026-04-19 11:37 53.56195 -0.85461 16 ft 8 kts 256°
2026-04-19 11:38 53.56115 -0.85609 13 ft 25 kts 225°
2026-04-19 11:38 53.55986 -0.85817 10 ft 24 kts 225°
2026-04-19 11:38 53.55874 -0.86005 13 ft 21 kts 227°
2026-04-19 11:38 53.55749 -0.86183 15 ft 18 kts 191°
2026-04-19 11:39 53.55716 -0.86221 16 ft 0 kts 353°
2026-04-19 11:40 53.55721 -0.86222 16 ft 5 kts 352°
2026-04-19 11:41 53.55820 -0.86089 13 ft 46 kts 45°
2026-04-19 11:41 53.56104 -0.85579 202 ft 65 kts 35°
2026-04-19 11:41 53.56446 -0.85032 495 ft 66 kts 32°
2026-04-19 11:41 53.56829 -0.84843 875 ft 58 kts 346°
2026-04-19 11:42 53.57213 -0.85194 1108 ft 72 kts 317°
2026-04-19 11:42 53.57538 -0.85883 1189 ft 84 kts 301°
2026-04-19 11:42 53.57841 -0.86763 1163 ft 89 kts 309°
2026-04-19 11:42 53.58091 -0.87657 1244 ft 83 kts 272°
2026-04-19 11:43 53.57819 -0.88544 1264 ft 95 kts 225°
2026-04-19 11:43 53.57194 -0.89083 1183 ft 107 kts 198°
2026-04-19 11:43 53.56463 -0.89265 1138 ft 107 kts 192°
2026-04-19 11:43 53.55727 -0.89520 1087 ft 106 kts 199°
2026-04-19 11:44 53.55080 -0.89580 1017 ft 83 kts 172°
2026-04-19 11:44 53.54650 -0.89136 963 ft 67 kts 126°
2026-04-19 11:44 53.54433 -0.88427 785 ft 67 kts 88°
2026-04-19 11:44 53.54603 -0.87820 704 ft 60 kts 30°
2026-04-19 11:45 53.54952 -0.87416 619 ft 63 kts 29°
2026-04-19 11:45 53.55285 -0.86965 420 ft 63 kts 32°
2026-04-19 11:45 53.55615 -0.86425 117 ft 68 kts 35°
2026-04-19 11:45 53.55884 -0.85986 12 ft 36 kts 41°
2026-04-19 11:46 53.56120 -0.85554 120 ft 60 kts 49°
2026-04-19 11:46 53.56406 -0.85063 402 ft 58 kts 21°
2026-04-19 11:46 53.56754 -0.84911 792 ft 53 kts 335°
2026-04-19 11:46 53.57061 -0.85370 1053 ft 70 kts 311°
2026-04-19 11:47 53.57369 -0.86140 1115 ft 85 kts 303°
2026-04-19 11:47 53.57631 -0.87055 1130 ft 88 kts 297°
2026-04-19 11:47 53.57693 -0.87975 1242 ft 83 kts 245°
2026-04-19 11:47 53.57179 -0.88529 1304 ft 98 kts 207°
2026-04-19 11:48 53.56540 -0.88922 1213 ft 89 kts 204°
2026-04-19 11:48 53.56023 -0.89200 1171 ft 73 kts 202°
2026-04-19 11:48 53.55504 -0.89394 1038 ft 76 kts 192°
2026-04-19 11:48 53.55153 -0.89298 938 ft 78 kts 159°
2026-04-19 11:49 53.54768 -0.88717 836 ft 73 kts 118°
2026-04-19 11:49 53.54656 -0.87976 748 ft 62 kts 63°
2026-04-19 11:49 53.54941 -0.87447 615 ft 63 kts 32°
2026-04-19 11:49 53.55280 -0.86951 385 ft 64 kts 34°
2026-04-19 11:50 53.55615 -0.86425 116 ft 67 kts 40°
2026-04-19 11:50 53.55876 -0.85991 13 ft 35 kts 36°
2026-04-19 11:50 53.56117 -0.85582 88 ft 62 kts 38°
2026-04-19 11:50 53.56459 -0.85064 378 ft 66 kts 31°
2026-04-19 11:51 53.56844 -0.84740 777 ft 63 kts
2026-04-19 11:51 53.57265 -0.85077 1045 ft 74 kts 310°
2026-04-19 11:51 53.57577 -0.85923 1047 ft 90 kts 301°
2026-04-19 11:51 53.57866 -0.86858 1067 ft 90 kts 299°
2026-04-19 11:52 53.58037 -0.87855 1111 ft 89 kts 259°
2026-04-19 11:52 53.57610 -0.88632 1076 ft 101 kts 212°
2026-04-19 11:52 53.56964 -0.89155 1011 ft 104 kts 206°
2026-04-19 11:52 53.56274 -0.89559 938 ft 106 kts 202°
2026-04-19 11:53 53.55673 -0.89840 993 ft 71 kts 199°
2026-04-19 11:53 53.55190 -0.89746 1023 ft 77 kts 154°
2026-04-19 11:53 53.54807 -0.89134 945 ft 75 kts 120°
2026-04-19 11:53 53.54602 -0.88362 814 ft 65 kts 90°
2026-04-19 11:54 53.54762 -0.87708 687 ft 60 kts 35°
2026-04-19 11:54 53.55083 -0.87247 548 ft 63 kts 32°
2026-04-19 11:54 53.55425 -0.86744 286 ft 66 kts 41°
2026-04-19 11:54 53.55744 -0.86213 20 ft 56 kts 41°
2026-04-19 11:55 53.55959 -0.85858 10 ft 54 kts 45°
2026-04-19 11:55 53.56252 -0.85351 251 ft 63 kts 30°
2026-04-19 11:55 53.56589 -0.84873 641 ft 64 kts 30°
2026-04-19 11:55 53.56993 -0.84859 970 ft 65 kts 330°
2026-04-19 11:56 53.57350 -0.85430 1109 ft 81 kts 313°
2026-04-19 11:56 53.57709 -0.86231 1122 ft 87 kts 307°
2026-04-19 11:56 53.57997 -0.87134 1128 ft 92 kts 297°
2026-04-19 11:56 53.58204 -0.88122 1163 ft 89 kts 274°
2026-04-19 11:57 53.57927 -0.89030 1207 ft 95 kts 219°
2026-04-19 11:57 53.57245 -0.89278 1131 ft 108 kts 185°
2026-04-19 11:57 53.56531 -0.89294 1041 ft 88 kts 184°
2026-04-19 11:57 53.55982 -0.89289 971 ft 77 kts 181°
2026-04-19 11:58 53.55455 -0.89080 923 ft 76 kts 143°
2026-04-19 11:58 53.55169 -0.88362 793 ft 74 kts 108°
2026-04-19 11:58 53.55102 -0.87564 544 ft 62 kts 69°
2026-04-19 11:58 53.55314 -0.86901 292 ft 64 kts 38°
2026-04-19 11:59 53.55634 -0.86405 86 ft 65 kts 36°
2026-04-19 11:59 53.55897 -0.85959 12 ft 35 kts 38°
2026-04-19 11:59 53.56027 -0.85746 12 ft 20 kts 43°
2026-04-19 11:59 53.56118 -0.85597 13 ft 16 kts 45°
2026-04-19 12:00 53.56189 -0.85477 16 ft 12 kts 54°
2026-04-19 12:00 53.56179 -0.85423 15 ft 0 kts 134°
2026-04-19 12:00 53.56149 -0.85413 14 ft 7 kts 200°
2026-04-19 12:01 53.56144 -0.85410 14 ft 0 kts